Time;durP1;ratioP1;P1;durP2;ratioP2;P2;SDS_P1;SDS_P2;PMS_P1;PMS_P2;Temp;Humidity;BMP_temperature;BMP_pressure;BME280_temperature;BME280_humidity;BME280_pressure;Samples;Min_cycle;Max_cycle;Signal;HPM_P1;HPM_P2
2021/11/25 00:00:33;;;;;;;21.20;18.90;;;;;;;4.87;58.92;97585.28;8218783;28;20231;-83
2021/11/25 00:04:36;;;;;;;21.93;18.80;;;;;;;4.52;60.40;97581.09;8239495;28;20545;-85
2021/11/25 00:08:39;;;;;;;21.37;19.17;;;;;;;4.39;60.56;97572.88;8250579;28;20258;-84
2021/11/25 00:12:46;;;;;;;26.23;20.37;;;;;;;4.74;59.99;97565.97;8251243;28;20285;-84
2021/11/25 00:16:49;;;;;;;22.27;19.97;;;;;;;4.87;59.35;97563.91;8249821;28;20234;-84
2021/11/25 00:20:53;;;;;;;22.40;20.00;;;;;;;4.46;59.95;97558.19;8250662;28;20237;-85
2021/11/25 00:24:56;;;;;;;22.23;19.87;;;;;;;4.62;60.34;97564.56;8250514;28;20368;-84
2021/11/25 00:29:01;;;;;;;22.57;20.27;;;;;;;4.38;60.71;97563.50;8250656;28;20238;-87
2021/11/25 00:33:05;;;;;;;21.07;18.83;;;;;;;4.97;59.20;97549.06;8250290;28;20234;-87
2021/11/25 00:37:08;;;;;;;22.17;19.80;;;;;;;5.01;58.70;97550.69;8225521;28;20405;-85
2021/11/25 00:41:11;;;;;;;22.40;20.13;;;;;;;4.72;59.13;97536.94;8217484;28;20280;-85
2021/11/25 00:45:17;;;;;;;22.73;20.37;;;;;;;4.62;59.37;97536.34;8218903;28;20235;-85
2021/11/25 00:49:20;;;;;;;21.67;19.47;;;;;;;4.80;59.05;97547.84;8218360;28;20230;-85
2021/11/25 00:53:24;;;;;;;21.80;19.60;;;;;;;4.89;58.92;97533.91;8218302;28;20246;-85
2021/11/25 00:57:27;;;;;;;22.27;19.93;;;;;;;4.67;59.55;97544.78;8218238;28;20239;-84
2021/11/25 01:01:31;;;;;;;21.50;19.30;;;;;;;5.03;58.21;97533.53;8218231;28;20239;-85
2021/11/25 01:05:35;;;;;;;23.43;21.03;;;;;;;4.74;59.64;97542.91;8218221;28;20255;-85
2021/11/25 01:09:41;;;;;;;23.10;20.70;;;;;;;4.82;58.67;97525.56;8217819;28;20250;-85
2021/11/25 01:13:45;;;;;;;22.83;20.43;;;;;;;4.94;58.44;97526.94;8217773;28;20515;-87
2021/11/25 01:17:51;;;;;;;25.37;22.77;;;;;;;4.88;59.00;97533.06;8222636;28;20231;-86
2021/11/25 01:21:55;;;;;;;24.50;21.93;;;;;;;4.63;59.37;97532.09;8223568;28;20308;-86
2021/11/25 01:25:59;;;;;;;24.77;22.23;;;;;;;5.13;57.66;97532.38;8223387;28;20239;-85
2021/11/25 01:30:02;;;;;;;23.53;21.20;;;;;;;5.25;58.12;97520.88;8223315;28;20250;-85
2021/11/25 01:34:07;;;;;;;24.57;21.97;;;;;;;5.00;58.14;97518.22;8229784;28;20242;-87
2021/11/25 01:38:14;;;;;;;24.87;22.20;;;;;;;5.17;58.01;97515.16;8223642;28;20309;-84
2021/11/25 01:42:17;;;;;;;25.17;22.57;;;;;;;5.24;57.32;97503.81;8221778;28;20235;-84
2021/11/25 01:46:22;;;;;;;24.53;22.03;;;;;;;5.10;57.91;97499.06;8224918;28;20198;-82
2021/11/25 01:50:28;;;;;;;23.97;21.57;;;;;;;5.54;56.65;97504.59;8223242;28;20239;-82
2021/11/25 01:54:31;;;;;;;26.30;23.40;;;;;;;5.18;58.17;97492.00;8222830;28;20245;-82
2021/11/25 01:58:34;;;;;;;27.83;24.13;;;;;;;4.97;57.84;97483.22;8222512;28;20237;-83
2021/11/25 02:02:38;;;;;;;25.40;22.80;;;;;;;4.76;59.53;97471.84;8222315;28;20462;-82
2021/11/25 02:06:43;;;;;;;27.03;24.23;;;;;;;4.89;58.02;97455.22;8222532;28;20246;-83
2021/11/25 02:10:49;;;;;;;27.60;24.80;;;;;;;4.65;59.59;97449.06;8222055;28;20248;-83
2021/11/25 02:14:52;;;;;;;27.73;24.40;;;;;;;5.29;57.39;97448.88;8222056;28;20555;-83
2021/11/25 02:18:57;;;;;;;28.07;25.03;;;;;;;5.01;58.05;97438.59;8221901;28;20239;-84
2021/11/25 02:23:01;;;;;;;29.40;26.30;;;;;;;4.94;58.17;97442.25;8221903;28;20243;-82
2021/11/25 02:27:05;;;;;;;27.57;24.63;;;;;;;5.16;57.22;97442.44;8221405;28;20553;-83
2021/11/25 02:31:08;;;;;;;29.00;26.07;;;;;;;4.75;58.45;97435.97;8221630;28;20239;-84
2021/11/25 02:35:14;;;;;;;29.30;26.23;;;;;;;4.68;58.71;97420.78;8220808;28;20238;-84
2021/11/25 02:39:20;;;;;;;29.57;26.57;;;;;;;4.74;58.34;97432.59;8221717;28;20239;-83
2021/11/25 02:43:25;;;;;;;30.37;27.17;;;;;;;4.85;57.68;97415.13;8221397;28;20254;-83
2021/11/25 02:47:28;;;;;;;30.67;27.53;;;;;;;4.30;59.61;97432.09;8220963;28;20234;-83
2021/11/25 02:51:32;;;;;;;30.13;27.13;;;;;;;4.66;58.62;97427.69;8221331;28;20424;-83
2021/11/25 02:55:37;;;;;;;28.37;25.57;;;;;;;4.69;58.17;97419.88;8221084;28;20419;-84
2021/11/25 02:59:41;;;;;;;30.57;27.40;;;;;;;5.21;56.95;97426.88;8220551;28;20238;-83
2021/11/25 03:03:45;;;;;;;29.37;26.37;;;;;;;5.20;57.10;97417.50;8220562;28;20289;-83
2021/11/25 03:07:48;;;;;;;28.93;25.77;;;;;;;5.49;55.78;97416.56;8220858;28;20513;-83
2021/11/25 03:11:53;;;;;;;29.80;26.90;;;;;;;5.33;56.39;97421.38;8220912;28;20243;-83
2021/11/25 03:15:57;;;;;;;28.40;25.50;;;;;;;5.21;56.95;97417.44;8220544;28;20239;-84
2021/11/25 03:20:00;;;;;;;28.33;25.43;;;;;;;5.55;56.02;97403.53;8220498;28;20433;-83
2021/11/25 03:24:03;;;;;;;29.90;26.73;;;;;;;5.09;57.26;97400.72;8220275;28;20238;-83
2021/11/25 03:28:08;;;;;;;29.87;26.83;;;;;;;5.03;56.85;97393.22;8219337;28;20250;-84
2021/11/25 03:32:11;;;;;;;29.20;26.10;;;;;;;5.04;57.60;97394.03;8220149;28;20245;-84
2021/11/25 03:36:15;;;;;;;28.97;26.13;;;;;;;5.28;56.97;97387.28;8219479;28;20247;-85
2021/11/25 03:40:18;;;;;;;30.50;27.30;;;;;;;5.02;57.77;97385.53;8219760;28;20421;-84
2021/11/25 03:44:23;;;;;;;29.73;26.67;;;;;;;5.43;56.59;97388.53;8219099;28;20243;-83
2021/11/25 03:48:29;;;;;;;30.03;27.00;;;;;;;5.24;56.61;97383.16;8218559;28;20281;-84
2021/11/25 03:52:32;;;;;;;29.37;26.37;;;;;;;5.51;55.93;97376.25;8226994;28;20234;-84
2021/11/25 03:56:35;;;;;;;29.23;26.13;;;;;;;5.29;57.16;97383.81;8219686;28;20394;-83
2021/11/25 04:00:39;;;;;;;28.87;25.97;;;;;;;5.08;56.58;97363.09;8219651;28;20235;-86
2021/11/25 04:04:43;;;;;;;30.03;26.80;;;;;;;4.43;58.95;97364.22;8219264;28;20243;-84
2021/11/25 04:08:46;;;;;;;29.70;26.60;;;;;;;4.85;58.19;97352.72;8219213;28;20550;-83
2021/11/25 04:12:49;;;;;;;29.83;26.83;;;;;;;4.93;58.20;97363.59;8219120;28;20235;-82
2021/11/25 04:16:54;;;;;;;29.47;26.47;;;;;;;5.35;56.49;97365.66;8219109;28;20346;-83
2021/11/25 04:20:57;;;;;;;31.10;27.73;;;;;;;5.39;55.68;97358.72;8218802;28;20262;-83
2021/11/25 04:25:00;;;;;;;30.77;27.63;;;;;;;5.20;56.52;97338.75;8218894;28;20572;-84
2021/11/25 04:29:04;;;;;;;31.53;28.43;;;;;;;5.35;56.33;97340.00;8234209;28;20536;-84
2021/11/25 04:37:29;;;;;;;31.00;27.90;;;;;;;5.03;58.12;97331.63;8250346;28;20230;-83
2021/11/25 04:41:33;;;;;;;29.33;26.30;;;;;;;5.76;55.79;97334.31;8250593;28;20234;-82
2021/11/25 04:45:38;;;;;;;29.80;26.80;;;;;;;5.61;55.52;97331.38;8250659;28;20233;-83
2021/11/25 04:49:42;;;;;;;27.93;25.30;;;;;;;5.67;55.28;97326.06;8250584;28;20237;-82
2021/11/25 04:53:45;;;;;;;30.23;27.07;;;;;;;5.33;56.67;97334.06;8250499;28;20528;-82
2021/11/25 04:57:48;;;;;;;31.57;28.17;;;;;;;5.46;56.30;97330.19;8254383;28;20237;-82
2021/11/25 05:01:51;;;;;;;31.83;27.67;;;;;;;5.40;55.79;97319.28;8256446;28;20241;-85
2021/11/25 05:05:57;;;;;;;29.70;26.63;;;;;;;5.78;55.46;97329.97;8256166;28;20248;-85
2021/11/25 05:10:00;;;;;;;30.40;27.20;;;;;;;5.71;55.23;97321.63;8255935;28;20242;-85
2021/11/25 05:14:03;;;;;;;31.90;28.53;;;;;;;5.85;54.97;97306.56;8255610;28;20291;-82
2021/11/25 05:18:08;;;;;;;30.67;27.47;;;;;;;5.97;54.71;97313.03;8256130;28;20245;-82
2021/11/25 05:22:12;;;;;;;30.70;27.37;;;;;;;6.11;54.20;97317.69;8255734;28;20237;-82
2021/11/25 05:26:15;;;;;;;29.77;26.67;;;;;;;6.17;54.04;97319.16;8255553;28;20532;-83
2021/11/25 05:30:20;;;;;;;30.63;27.33;;;;;;;6.19;54.13;97318.22;8255226;28;20433;-82
2021/11/25 05:34:23;;;;;;;29.67;26.47;;;;;;;6.17;53.91;97316.59;8255234;28;20379;-82
2021/11/25 05:38:27;;;;;;;30.03;26.93;;;;;;;6.12;53.63;97316.78;8255469;28;20229;-82
2021/11/25 05:42:32;;;;;;;31.80;28.37;;;;;;;6.13;53.79;97313.31;8253734;28;20426;-83
2021/11/25 05:46:35;;;;;;;31.93;28.53;;;;;;;6.26;54.12;97318.81;8255223;28;20308;-82
2021/11/25 05:50:38;;;;;;;31.00;27.70;;;;;;;6.25;53.69;97315.41;8238613;28;20235;-82
2021/11/25 05:54:42;;;;;;;30.90;27.50;;;;;;;6.38;53.31;97314.97;8249184;28;20249;-82
2021/11/25 05:58:45;;;;;;;31.53;28.13;;;;;;;6.37;53.52;97308.16;8254801;28;20233;-82
2021/11/25 06:02:48;;;;;;;31.50;28.17;;;;;;;6.28;53.45;97308.47;8248717;28;20420;-82
2021/11/25 06:06:52;;;;;;;30.90;27.80;;;;;;;6.42;53.17;97314.78;8245727;28;20242;-84
2021/11/25 06:10:59;;;;;;;32.13;28.83;;;;;;;6.46;52.95;97321.50;8254422;28;20234;-83
2021/11/25 06:15:02;;;;;;;31.63;28.27;;;;;;;6.17;53.92;97312.31;8255574;28;20249;-88
2021/11/25 06:19:05;;;;;;;33.20;29.67;;;;;;;6.23;53.67;97306.09;8229366;28;20245;-86
2021/11/25 06:23:09;;;;;;;31.80;28.50;;;;;;;6.35;53.56;97312.50;8216722;28;20238;-84
2021/11/25 06:27:14;;;;;;;34.53;30.83;;;;;;;6.09;53.37;97313.47;8201069;28;20236;-87
2021/11/25 06:31:17;;;;;;;34.37;30.67;;;;;;;6.31;53.47;97326.38;8196400;28;20231;-83
2021/11/25 06:35:22;;;;;;;33.43;29.77;;;;;;;6.46;53.29;97326.63;8201436;28;20259;-82
2021/11/25 06:39:25;;;;;;;33.93;29.40;;;;;;;6.54;53.17;97333.22;8249133;28;20241;-83
2021/11/25 06:43:29;;;;;;;34.07;30.40;;;;;;;6.51;53.45;97333.34;8253382;28;20240;-82
2021/11/25 06:47:32;;;;;;;33.37;29.27;;;;;;;6.50;53.05;97322.22;8253192;28;20234;-82
2021/11/25 06:51:39;;;;;;;32.27;28.50;;;;;;;6.31;53.47;97324.63;8253130;28;20246;-83
2021/11/25 06:55:43;;;;;;;34.40;30.07;;;;;;;6.53;52.82;97328.97;8253200;28;20577;-83
2021/11/25 06:59:48;;;;;;;35.70;30.53;;;;;;;6.60;53.47;97328.66;8253164;28;20245;-83
2021/11/25 07:03:51;;;;;;;39.37;31.90;;;;;;;6.24;53.66;97328.31;8252741;28;20422;-84
2021/11/25 07:07:54;;;;;;;34.40;30.70;;;;;;;6.15;54.39;97326.94;8252452;28;20254;-83
2021/11/25 07:11:57;;;;;;;33.70;30.10;;;;;;;6.40;53.68;97332.00;8252362;28;20241;-84
2021/11/25 07:16:03;;;;;;;35.00;31.03;;;;;;;6.50;53.63;97335.06;8252436;28;20241;-83
2021/11/25 07:20:09;;;;;;;34.40;30.63;;;;;;;6.49;53.64;97324.84;8243992;28;20230;-83
2021/11/25 07:24:12;;;;;;;35.87;32.17;;;;;;;6.43;53.26;97328.47;8251980;28;20572;-83
2021/11/25 07:28:15;;;;;;;35.77;31.53;;;;;;;6.30;53.89;97329.84;8251803;28;20237;-83
2021/11/25 07:32:20;;;;;;;36.27;31.63;;;;;;;6.44;53.35;97330.16;8252262;28;20533;-83
2021/11/25 07:36:23;;;;;;;33.07;29.57;;;;;;;6.49;53.53;97309.41;8251717;28;20250;-83
2021/11/25 07:40:26;;;;;;;35.03;30.27;;;;;;;6.63;53.13;97320.00;8251676;28;20233;-83
2021/11/25 07:44:29;;;;;;;35.57;31.47;;;;;;;6.50;53.31;97323.97;8251773;28;20238;-83
2021/11/25 07:48:34;;;;;;;36.57;31.07;;;;;;;5.57;55.18;97332.38;8251916;28;20590;-87
2021/11/25 07:52:38;;;;;;;33.40;29.77;;;;;;;5.66;55.21;97321.78;8251400;28;20238;-85
2021/11/25 07:56:41;;;;;;;34.03;30.43;;;;;;;6.35;54.33;97322.78;8249889;28;20238;-84
2021/11/25 08:00:45;;;;;;;35.40;31.43;;;;;;;6.54;53.67;97328.91;8250943;28;20249;-85
2021/11/25 08:04:50;;;;;;;34.87;30.67;;;;;;;6.43;53.46;97324.16;8251421;28;20250;-83
2021/11/25 08:08:53;;;;;;;34.87;31.10;;;;;;;6.50;53.31;97329.09;8250662;28;20244;-84
2021/11/25 08:12:59;;;;;;;37.17;33.17;;;;;;;6.63;53.65;97318.28;8250479;28;20242;-84
2021/11/25 08:17:02;;;;;;;39.80;33.80;;;;;;;6.38;53.90;97305.53;8250758;28;20262;-83
2021/11/25 08:21:07;;;;;;;35.47;31.67;;;;;;;6.57;53.26;97318.50;8218495;28;20237;-84
2021/11/25 08:25:10;;;;;;;34.13;30.53;;;;;;;6.70;52.80;97318.88;8218499;28;20239;-85
2021/11/25 08:29:13;;;;;;;14.87;12.10;;;;;;;7.89;71.33;97321.72;8218910;28;20302;-88
2021/11/25 08:33:16;;;;;;;31.63;28.03;;;;;;;9.35;49.34;97310.59;8223864;28;20235;-86
2021/11/25 08:37:21;;;;;;;33.63;30.13;;;;;;;7.95;50.20;97317.09;8224902;28;20301;-88
2021/11/25 08:41:25;;;;;;;36.93;32.93;;;;;;;7.61;50.93;97320.31;8224994;28;20238;-87
2021/11/25 08:45:29;;;;;;;34.83;31.13;;;;;;;7.48;51.08;97327.72;8225574;28;20257;-87
2021/11/25 08:49:33;;;;;;;35.63;31.73;;;;;;;7.29;51.45;97321.66;8225185;28;20255;-87
2021/11/25 08:53:37;;;;;;;34.93;31.23;;;;;;;7.15;52.31;97314.50;8225278;28;20235;-87
2021/11/25 08:57:40;;;;;;;34.77;31.10;;;;;;;7.32;51.67;97326.69;8224826;28;20566;-87
2021/11/25 09:01:44;;;;;;;39.40;35.50;;;;;;;7.71;50.58;97321.63;8233337;28;20616;-86
2021/11/25 09:05:47;;;;;;;35.70;31.80;;;;;;;7.26;51.95;97326.97;8230857;28;20363;-87
2021/11/25 09:09:52;;;;;;;39.23;32.93;;;;;;;7.20;52.34;97335.78;8230206;28;20238;-87
2021/11/25 09:13:55;;;;;;;37.07;32.57;;;;;;;7.06;52.43;97341.47;8229165;28;20230;-86
2021/11/25 09:18:00;;;;;;;36.30;32.40;;;;;;;7.15;52.09;97337.69;8229352;28;20301;-86
2021/11/25 09:22:04;;;;;;;38.07;31.40;;;;;;;7.19;51.80;97334.09;8232211;28;20243;-84
2021/11/25 09:26:12;;;;;;;35.73;31.80;;;;;;;7.13;51.91;97331.78;8215702;28;20423;-88
2021/11/25 09:30:16;;;;;;;35.53;31.60;;;;;;;7.11;51.64;97329.25;8200792;28;20238;-87
2021/11/25 09:34:19;;;;;;;33.97;30.30;;;;;;;7.13;51.93;97321.47;8231866;28;20611;-88
2021/11/25 09:38:23;;;;;;;35.03;31.23;;;;;;;7.13;51.51;97312.00;8231728;28;20239;-86
2021/11/25 09:42:27;;;;;;;38.03;32.90;;;;;;;7.13;51.58;97299.13;8223714;28;20249;-86
2021/11/25 09:46:30;;;;;;;39.13;33.43;;;;;;;6.97;51.97;97301.50;8224124;28;20234;-86
2021/11/25 09:50:36;;;;;;;35.87;32.03;;;;;;;7.01;51.60;97294.50;8223926;28;20261;-87
2021/11/25 09:54:39;;;;;;;39.27;33.23;;;;;;;7.05;51.96;97268.53;8228231;28;20245;-87
2021/11/25 09:58:45;;;;;;;40.97;33.40;;;;;;;7.11;51.50;97274.34;8230211;28;20550;-87
2021/11/25 10:02:48;;;;;;;41.13;34.53;;;;;;;6.97;51.83;97275.75;8228045;28;20541;-88
2021/11/25 10:06:54;;;;;;;38.33;34.13;;;;;;;7.07;52.12;97270.22;8226455;28;20517;-87
2021/11/25 10:11:00;;;;;;;39.27;34.70;;;;;;;7.09;52.00;97266.69;8226805;28;20234;-87
2021/11/25 10:15:28;;;;;;;38.03;33.37;;;;;;;7.06;52.12;97261.66;8226238;28;20294;-85
2021/11/25 10:19:32;;;;;;;39.00;34.10;;;;;;;7.04;51.38;97245.44;8226697;28;20237;-87
2021/11/25 10:23:35;;;;;;;41.13;33.80;;;;;;;7.12;51.64;97245.97;8226409;28;20234;-88
2021/11/25 10:27:48;;;;;;;42.60;36.50;;;;;;;7.17;56.40;97248.34;8226085;28;20249;-88
2021/11/25 10:31:55;;;;;;;40.13;34.13;;;;;;;7.05;51.27;97250.53;8226448;28;20234;-87
2021/11/25 10:36:16;;;;;;;40.17;33.87;;;;;;;7.00;51.83;97252.44;8225966;28;20453;-86
2021/11/25 10:40:24;;;;;;;35.37;31.10;;;;;;;6.99;51.83;97250.78;8251375;28;20242;-87
2021/11/25 10:44:29;;;;;;;37.23;31.20;;;;;;;7.08;51.37;97239.25;8256569;28;20256;-87
2021/11/25 10:48:38;;;;;;;36.90;30.10;;;;;;;7.17;51.04;97244.00;8257312;28;20234;-88
2021/11/25 10:53:08;;;;;;;34.27;29.93;;;;;;;7.11;50.90;97254.59;8254809;28;20242;-90
2021/11/25 10:57:16;;;;;;;35.13;30.70;;;;;;;7.08;50.83;97262.41;8223663;28;20242;-86
2021/11/25 11:01:34;;;;;;;32.78;26.08;;;;;;;7.35;52.57;97264.75;8231203;28;20448;-87
2021/11/25 11:05:51;;;;;;;34.53;30.73;;;;;;;7.21;50.50;97266.16;8253535;28;20238;-87
2021/11/25 11:09:54;;;;;;;35.67;31.70;;;;;;;7.09;50.57;97245.25;8253888;28;20238;-88
2021/11/25 11:14:16;;;;;;;35.63;30.90;;;;;;;6.86;51.23;97262.47;8234721;28;20238;-88
2021/11/25 11:18:47;;;;;;;35.30;30.67;;;;;;;7.03;50.96;97260.06;8221253;28;20238;-87
2021/11/25 11:22:53;;;;;;;35.90;32.00;;;;;;;7.10;51.10;97259.78;8221329;28;20449;-87
2021/11/25 11:26:58;;;;;;;42.13;35.87;;;;;;;7.05;51.17;97257.41;8224223;28;20284;-88
2021/11/25 11:31:01;;;;;;;39.20;34.00;;;;;;;7.05;51.53;97257.41;8253050;28;20517;-88
2021/11/25 11:35:06;;;;;;;37.00;32.50;;;;;;;7.03;51.41;97256.66;8252832;28;20237;-88
2021/11/25 11:39:13;;;;;;;38.73;31.37;;;;;;;7.08;51.17;97265.00;8257365;28;20244;-87
2021/11/25 11:43:16;;;;;;;39.23;34.63;;;;;;;7.07;51.17;97262.50;8255404;28;20241;-87
2021/11/25 11:47:20;;;;;;;37.83;33.80;;;;;;;6.87;51.32;97250.44;8252434;28;20264;-88
2021/11/25 11:51:23;;;;;;;35.70;31.67;;;;;;;7.06;51.03;97243.63;8232593;28;20414;-87
2021/11/25 11:55:45;;;;;;;36.17;32.23;;;;;;;6.95;51.33;97249.25;8219295;28;20242;-87
2021/11/25 11:59:49;;;;;;;40.60;36.20;;;;;;;7.05;51.05;97254.84;8237888;28;20249;-87
2021/11/25 12:03:53;;;;;;;48.80;42.73;;;;;;;6.95;51.07;97244.09;8243252;28;20237;-88
2021/11/25 12:07:57;;;;;;;36.20;31.63;;;;;;;7.09;51.01;97234.97;8251652;28;20242;-89
2021/11/25 12:12:10;;;;;;;38.63;32.17;;;;;;;7.04;51.29;97227.41;8242742;28;20245;-85
2021/11/25 12:16:38;;;;;;;37.07;32.00;;;;;;;6.91;51.54;97229.69;8232162;28;20239;-86
2021/11/25 12:20:57;;;;;;;35.07;31.33;;;;;;;6.80;51.69;97230.09;8221093;28;20235;-86
2021/11/25 12:25:01;;;;;;;38.10;31.90;;;;;;;6.94;51.52;97236.44;8219274;28;20234;-84
2021/11/25 12:29:35;;;;;;;35.27;30.60;;;;;;;6.95;51.51;97226.06;8230636;28;20245;-85
2021/11/25 12:33:41;;;;;;;35.70;31.77;;;;;;;6.90;51.38;97220.28;8229409;28;20301;-91
2021/11/25 12:38:00;;;;;;;35.60;31.50;;;;;;;6.85;51.62;97220.47;8219166;28;20238;-87
2021/11/25 12:42:23;;;;;;;37.10;32.07;;;;;;;6.95;51.51;97213.19;8274169;28;20248;-87
2021/11/25 12:46:29;;;;;;;38.77;31.47;;;;;;;6.85;51.44;97210.19;8283792;28;20268;-86
2021/11/25 12:50:33;;;;;;;38.63;33.87;;;;;;;6.77;52.32;97219.94;8272655;28;20301;-86
2021/11/25 12:54:36;;;;;;;37.53;30.73;;;;;;;6.72;51.92;97221.00;8250489;28;20541;-88
2021/11/25 12:58:46;;;;;;;39.90;34.43;;;;;;;6.82;52.05;97210.28;8251037;28;20438;-87
2021/11/25 13:03:01;;;;;;;42.90;36.40;;;;;;;6.84;51.96;97195.63;8251524;28;20242;-87
2021/11/25 13:07:06;;;;;;;35.43;31.40;;;;;;;6.74;52.38;97191.78;8256143;28;20249;-85
2021/11/25 13:11:16;;;;;;;37.70;29.93;;;;;;;6.89;51.56;97192.84;8252839;28;20241;-86
2021/11/25 13:15:21;;;;;;;38.73;31.73;;;;;;;6.80;52.26;97188.09;8254767;28;20245;-86
2021/11/25 13:19:28;;;;;;;57.43;45.00;;;;;;;6.63;52.27;97171.63;8261988;28;20293;-86
2021/11/25 13:23:31;;;;;;;48.10;38.10;;;;;;;6.72;53.07;97185.84;8263917;28;20298;-86
2021/11/25 13:27:34;;;;;;;44.13;35.90;;;;;;;6.70;53.17;97177.34;8262666;28;20245;-86
2021/11/25 13:31:37;;;;;;;42.00;33.00;;;;;;;6.45;54.07;97180.06;8247052;28;20238;-86
2021/11/25 13:35:42;;;;;;;41.13;33.30;;;;;;;6.74;53.01;97181.47;8264136;28;20245;-86
2021/11/25 13:39:48;;;;;;;44.33;35.20;;;;;;;6.61;53.26;97170.84;8264114;28;20308;-86
2021/11/25 13:43:53;;;;;;;42.13;32.93;;;;;;;6.83;53.00;97186.25;8263070;28;20234;-84
2021/11/25 13:47:57;;;;;;;38.33;30.67;;;;;;;6.72;52.58;97180.69;8261841;28;20234;-86
2021/11/25 13:52:07;;;;;;;40.27;32.23;;;;;;;6.81;53.27;97180.28;8260947;28;20233;-85
2021/11/25 13:56:11;;;;;;;55.30;45.50;;;;;;;6.68;53.13;97183.44;8225944;28;20242;-86
2021/11/25 14:00:16;;;;;;;54.57;43.57;;;;;;;6.75;53.31;97196.00;8226785;28;20326;-86
2021/11/25 14:04:19;;;;;;;42.43;34.90;;;;;;;6.75;53.52;97198.56;8227179;28;20238;-85
2021/11/25 14:08:30;;;;;;;69.43;57.27;;;;;;;6.80;53.19;97181.22;8230466;28;20241;-85
2021/11/25 14:12:50;;;;;;;43.37;34.23;;;;;;;6.76;52.33;97187.38;8234640;28;20239;-86
2021/11/25 14:16:53;;;;;;;36.80;29.80;;;;;;;6.74;52.98;97175.47;8229450;28;20239;-86
2021/11/25 14:20:56;;;;;;;37.30;29.93;;;;;;;6.67;53.16;97187.75;8226338;28;20238;-86
2021/11/25 14:25:03;;;;;;;44.83;35.30;;;;;;;6.62;52.92;97181.97;8224769;28;20246;-86
2021/11/25 14:33:42;;;;;;;43.57;35.77;;;;;;;6.33;53.60;97173.69;8257857;28;20230;-86
2021/11/25 14:37:50;;;;;;;41.07;34.20;;;;;;;6.48;53.17;97177.38;8258010;28;20250;-86
2021/11/25 14:41:55;;;;;;;50.30;42.13;;;;;;;6.68;52.32;97180.88;8257338;28;20237;-86
2021/11/25 14:45:58;;;;;;;45.23;37.57;;;;;;;6.57;53.10;97183.91;8256374;28;20233;-86
2021/11/25 14:50:06;;;;;;;36.83;31.60;;;;;;;6.67;52.65;97187.75;8257395;28;20246;-86
2021/11/25 14:54:14;;;;;;;38.47;31.33;;;;;;;6.76;52.41;97204.53;8231711;28;20238;-84
2021/11/25 14:58:19;;;;;;;37.53;31.07;;;;;;;6.51;52.59;97199.56;8225843;28;20247;-86
2021/11/25 15:02:34;;;;;;;35.37;30.07;;;;;;;6.71;52.65;97186.72;8223957;28;27675;-85
2021/11/25 15:06:39;;;;;;;37.33;31.83;;;;;;;6.41;52.83;97188.81;8226301;28;20246;-86
2021/11/25 15:10:44;;;;;;;34.20;30.07;;;;;;;6.53;52.83;97197.78;8224894;28;20249;-86
2021/11/25 15:14:49;;;;;;;35.57;30.13;;;;;;;6.58;52.57;97194.13;8224418;28;20230;-87
2021/11/25 15:18:52;;;;;;;39.40;31.67;;;;;;;6.51;52.54;97202.13;8247689;28;20237;-86
2021/11/25 15:22:56;;;;;;;35.20;29.70;;;;;;;6.55;52.78;97203.69;8226835;28;20307;-86
2021/11/25 15:27:00;;;;;;;34.30;29.87;;;;;;;6.75;52.25;97203.72;8226721;28;20250;-86
2021/11/25 15:31:28;;;;;;;34.57;28.67;;;;;;;6.86;51.98;97198.13;8218370;28;20421;-86
2021/11/25 15:35:31;;;;;;;34.97;27.93;;;;;;;6.79;52.05;97201.84;8223359;28;20230;-88
2021/11/25 15:39:35;;;;;;;37.00;30.73;;;;;;;6.70;52.50;97218.53;8225368;28;20238;-86
2021/11/25 15:43:38;;;;;;;37.47;30.40;;;;;;;6.50;53.07;97214.16;8225524;28;20552;-86
2021/11/25 15:47:43;;;;;;;35.43;29.90;;;;;;;6.52;52.66;97206.41;8224985;28;20241;-85
2021/11/25 15:51:46;;;;;;;36.13;32.17;;;;;;;6.89;51.99;97204.88;8237053;28;20582;-86
2021/11/25 15:55:50;;;;;;;34.67;30.00;;;;;;;6.82;51.87;97200.00;8222466;28;20469;-86
2021/11/25 15:59:53;;;;;;;32.27;28.57;;;;;;;6.89;51.52;97190.28;8222626;28;20430;-86
2021/11/25 16:04:00;;;;;;;37.23;31.37;;;;;;;6.71;51.97;97220.19;8221487;28;20525;-86
2021/11/25 16:08:03;;;;;;;43.37;35.07;;;;;;;6.85;51.42;97199.03;8222393;28;20298;-86
2021/11/25 16:12:07;;;;;;;39.50;33.50;;;;;;;6.71;51.61;97220.19;8222638;28;20301;-86
2021/11/25 16:16:10;;;;;;;34.90;31.10;;;;;;;6.48;51.83;97221.13;8221081;28;20223;-86
2021/11/25 16:20:15;;;;;;;31.33;27.93;;;;;;;6.63;51.40;97224.81;8222341;28;20237;-84
2021/11/25 16:24:18;;;;;;;38.17;33.63;;;;;;;6.63;51.54;97229.97;8221382;28;20237;-85
2021/11/25 16:28:22;;;;;;;35.03;31.17;;;;;;;6.70;51.43;97227.97;8222790;28;20235;-86
2021/11/25 16:32:25;;;;;;;34.30;30.30;;;;;;;6.40;52.16;97236.84;8222733;28;20563;-86
2021/11/25 16:36:29;;;;;;;35.83;31.70;;;;;;;6.53;51.35;97226.06;8222515;28;20214;-86
2021/11/25 16:40:33;;;;;;;34.10;30.10;;;;;;;6.83;51.23;97229.13;8229376;28;20249;-86
2021/11/25 16:44:37;;;;;;;34.77;30.53;;;;;;;6.74;51.43;97238.09;8226434;28;20233;-86
2021/11/25 16:48:40;;;;;;;42.07;35.83;;;;;;;6.85;50.62;97240.19;8228327;28;20243;-86
2021/11/25 16:52:53;;;;;;;37.93;33.57;;;;;;;6.95;50.61;97245.81;8228771;28;20265;-86
2021/11/25 16:56:58;;;;;;;36.43;32.47;;;;;;;6.92;50.83;97235.66;8232611;28;20308;-85
2021/11/25 17:01:02;;;;;;;36.77;32.30;;;;;;;7.01;50.96;97227.56;8238669;28;20234;-85
2021/11/25 17:05:09;;;;;;;36.23;31.90;;;;;;;6.92;51.26;97244.22;8229877;28;20239;-85
2021/11/25 17:09:14;;;;;;;32.27;28.27;;;;;;;6.95;50.68;97241.53;8201463;28;20247;-85
2021/11/25 17:13:19;;;;;;;32.87;29.47;;;;;;;7.00;50.91;97244.72;8194027;28;20346;-85
2021/11/25 17:17:22;;;;;;;36.20;32.30;;;;;;;6.94;51.05;97242.41;8193195;28;20235;-85
2021/11/25 17:21:26;;;;;;;32.60;29.30;;;;;;;6.84;50.93;97228.25;8193150;28;20240;-86
2021/11/25 17:25:31;;;;;;;35.73;31.77;;;;;;;6.99;50.57;97232.75;8193025;28;20227;-84
2021/11/25 17:29:34;;;;;;;32.10;28.60;;;;;;;6.94;50.70;97244.16;8193317;28;20246;-85
2021/11/25 17:33:37;;;;;;;33.73;30.07;;;;;;;6.83;51.04;97242.88;8193332;28;20262;-85
2021/11/25 17:37:41;;;;;;;34.37;30.73;;;;;;;6.88;51.03;97246.97;8191752;28;20255;-86
2021/11/25 17:41:47;;;;;;;34.87;30.73;;;;;;;6.81;50.99;97239.50;8206855;28;20243;-86
2021/11/25 17:45:54;;;;;;;31.60;28.23;;;;;;;6.91;50.56;97239.13;8208847;28;20234;-85
2021/11/25 17:49:58;;;;;;;33.40;29.80;;;;;;;6.95;50.25;97244.09;8216314;28;20245;-85
2021/11/25 17:54:02;;;;;;;37.87;31.07;;;;;;;6.97;50.17;97239.72;8224306;28;20234;-84
2021/11/25 17:58:08;;;;;;;37.10;31.57;;;;;;;6.97;50.33;97244.03;8220168;28;20423;-83
2021/11/25 18:02:11;;;;;;;34.07;30.43;;;;;;;7.07;50.02;97247.88;8223358;28;20416;-83
2021/11/25 18:06:15;;;;;;;28.03;25.03;;;;;;;6.98;50.09;97251.66;8221721;28;20558;-84
2021/11/25 18:10:20;;;;;;;33.23;27.60;;;;;;;6.85;50.75;97247.94;8222543;28;20235;-85
2021/11/25 18:14:25;;;;;;;30.83;27.53;;;;;;;6.70;50.41;97246.84;8221468;28;20234;-85
2021/11/25 18:18:28;;;;;;;32.13;28.10;;;;;;;6.78;50.72;97255.06;8222228;28;20277;-85
2021/11/25 18:22:32;;;;;;;32.13;28.43;;;;;;;6.77;50.69;97255.13;8221056;28;20242;-84
2021/11/25 18:26:36;;;;;;;33.20;28.87;;;;;;;6.83;51.01;97249.72;8222003;28;20239;-82
2021/11/25 18:30:40;;;;;;;30.63;27.43;;;;;;;6.84;50.71;97256.56;8221406;28;20281;-82
2021/11/25 18:34:44;;;;;;;29.67;26.57;;;;;;;6.83;51.03;97265.16;8222019;28;20234;-83
2021/11/25 18:38:48;;;;;;;30.27;26.97;;;;;;;6.81;50.47;97265.22;8221622;28;20245;-84
2021/11/25 18:42:52;;;;;;;30.20;26.93;;;;;;;6.84;50.71;97261.72;8220131;28;20303;-85
2021/11/25 18:46:57;;;;;;;30.60;27.30;;;;;;;6.72;50.59;97251.91;8220832;28;20227;-86
2021/11/25 18:51:00;;;;;;;31.37;27.07;;;;;;;6.77;50.46;97255.13;8220662;28;20250;-85
2021/11/25 18:55:05;;;;;;;32.07;27.87;;;;;;;6.87;50.88;97260.75;8220672;28;20235;-84
2021/11/25 18:59:09;;;;;;;29.90;26.70;;;;;;;6.73;50.76;97251.84;8219087;28;20239;-84
2021/11/25 19:03:13;;;;;;;31.70;28.13;;;;;;;6.78;50.95;97256.81;8220314;28;20241;-85
2021/11/25 19:07:17;;;;;;;33.43;29.83;;;;;;;6.83;50.95;97242.00;8220832;28;20311;-84